createdAt,value
2023-05-20T00:00:53.856Z,100.00
2023-05-20T00:03:21.302Z,100.00
2023-05-20T00:05:48.796Z,100.00
2023-05-20T00:08:15.844Z,100.00
2023-05-20T00:10:42.868Z,100.00
2023-05-20T00:13:10.007Z,100.00
2023-05-20T00:15:37.266Z,100.00
2023-05-20T00:18:07.334Z,100.00
2023-05-20T00:20:34.414Z,100.00
2023-05-20T00:23:01.476Z,100.00
2023-05-20T00:25:28.570Z,100.00
2023-05-20T00:27:55.743Z,100.00
2023-05-20T00:30:23.115Z,100.00
2023-05-20T00:32:50.304Z,100.00
2023-05-20T00:35:17.393Z,100.00
2023-05-20T00:37:44.569Z,100.00
2023-05-20T00:40:13.063Z,100.00
2023-05-20T00:42:42.010Z,100.00
2023-05-20T00:45:09.573Z,100.00
2023-05-20T00:47:39.099Z,100.00
2023-05-20T00:50:07.368Z,100.00
2023-05-20T00:52:35.139Z,100.00
2023-05-20T00:55:02.729Z,100.00
2023-05-20T00:57:30.462Z,100.00
2023-05-20T00:59:57.672Z,100.00
2023-05-20T01:02:25.224Z,100.00
2023-05-20T01:04:53.225Z,100.00
2023-05-20T01:07:20.452Z,100.00
2023-05-20T01:09:47.771Z,100.00
2023-05-20T01:12:30.759Z,100.00
2023-05-20T01:15:27.147Z,100.00
2023-05-20T01:18:01.341Z,100.00
2023-05-20T01:20:32.418Z,100.00
2023-05-20T01:22:59.614Z,100.00
2023-05-20T01:25:27.049Z,100.00
2023-05-20T01:27:55.805Z,100.00
2023-05-20T01:30:29.620Z,100.00
2023-05-20T01:33:01.786Z,100.00
2023-05-20T01:35:30.997Z,100.00
2023-05-20T01:37:59.602Z,100.00
2023-05-20T01:40:27.989Z,100.00
2023-05-20T01:42:56.176Z,100.00
2023-05-20T01:45:24.907Z,100.00
2023-05-20T01:47:52.118Z,100.00
2023-05-20T01:50:19.609Z,100.00
2023-05-20T01:52:46.724Z,100.00
2023-05-20T01:55:14.275Z,100.00
2023-05-20T01:57:42.326Z,100.00
2023-05-20T02:00:11.237Z,100.00
2023-05-20T02:02:41.288Z,100.00
2023-05-20T02:05:10.798Z,100.00
2023-05-20T02:07:37.968Z,100.00
2023-05-20T02:10:05.641Z,100.00
2023-05-20T02:12:32.688Z,100.00
2023-05-20T02:14:59.815Z,100.00
2023-05-20T02:17:26.970Z,100.00
2023-05-20T02:19:54.259Z,100.00
2023-05-20T02:22:21.288Z,100.00
2023-05-20T02:24:48.516Z,100.00
2023-05-20T02:27:16.250Z,100.00
2023-05-20T02:29:44.227Z,100.00
2023-05-20T02:32:12.506Z,100.00
2023-05-20T02:34:39.654Z,100.00
2023-05-20T02:37:06.842Z,100.00
2023-05-20T02:39:34.008Z,100.00
2023-05-20T02:42:01.101Z,100.00
2023-05-20T02:44:28.501Z,100.00
2023-05-20T02:46:56.545Z,100.00
2023-05-20T02:49:24.326Z,100.00
2023-05-20T02:51:52.336Z,100.00
2023-05-20T02:54:19.580Z,100.00
2023-05-20T02:56:46.764Z,100.00
2023-05-20T02:59:13.857Z,100.00
2023-05-20T03:01:41.137Z,100.00
2023-05-20T03:04:08.275Z,100.00
2023-05-20T03:06:35.489Z,100.00
2023-05-20T03:09:02.727Z,100.00
2023-05-20T03:11:30.209Z,100.00
2023-05-20T03:13:57.264Z,100.00
2023-05-20T03:16:25.119Z,100.00
2023-05-20T03:18:52.351Z,100.00
2023-05-20T03:21:19.979Z,100.00
2023-05-20T03:23:47.049Z,100.00
2023-05-20T03:26:14.334Z,100.00
2023-05-20T03:28:41.451Z,100.00
2023-05-20T03:31:09.274Z,100.00
2023-05-20T03:33:36.450Z,100.00
2023-05-20T03:36:04.347Z,100.00
2023-05-20T03:38:31.453Z,100.00
2023-05-20T03:40:58.656Z,100.00
2023-05-20T03:43:27.050Z,100.00
2023-05-20T03:45:54.142Z,100.00
2023-05-20T03:48:22.331Z,100.00
2023-05-20T03:50:49.823Z,100.00
2023-05-20T03:53:17.525Z,100.00
2023-05-20T03:55:44.680Z,100.00
2023-05-20T03:58:15.193Z,100.00
2023-05-20T04:00:42.517Z,100.00
2023-05-20T04:03:10.452Z,100.00
2023-05-20T04:05:37.728Z,100.00
2023-05-20T04:08:13.561Z,100.00
2023-05-20T04:10:42.737Z,100.00
2023-05-20T04:13:12.006Z,100.00
2023-05-20T04:15:39.415Z,100.00
2023-05-20T04:18:06.695Z,100.00
2023-05-20T04:20:34.148Z,100.00
2023-05-20T04:23:01.179Z,100.00
2023-05-20T04:25:28.299Z,100.00
2023-05-20T04:27:57.611Z,100.00
2023-05-20T04:30:25.360Z,100.00
2023-05-20T04:32:53.950Z,100.00
2023-05-20T04:35:21.266Z,100.00
2023-05-20T04:37:53.086Z,99.82
2023-05-20T04:40:21.136Z,99.26
2023-05-20T04:42:48.228Z,100.00
2023-05-20T04:45:16.033Z,100.00
2023-05-20T04:47:44.319Z,100.00
2023-05-20T04:50:11.980Z,100.00
2023-05-20T04:52:43.109Z,100.00
2023-05-20T04:55:12.305Z,100.00
2023-05-20T04:57:41.817Z,100.00
2023-05-20T05:00:11.172Z,100.00
2023-05-20T05:02:38.917Z,100.00
2023-05-20T05:05:06.845Z,98.77
2023-05-20T05:07:34.022Z,98.17
2023-05-20T05:10:01.140Z,98.33
2023-05-20T05:12:30.419Z,96.79
2023-05-20T05:14:58.785Z,96.28
2023-05-20T05:17:26.434Z,95.78
2023-05-20T05:19:53.567Z,95.84
2023-05-20T05:22:20.771Z,98.14
2023-05-20T05:24:49.402Z,95.71
2023-05-20T05:27:16.889Z,95.59
2023-05-20T05:29:43.987Z,94.11
2023-05-20T05:32:11.078Z,94.13
2023-05-20T05:34:38.124Z,95.71
2023-05-20T05:37:05.176Z,93.11
2023-05-20T05:39:34.537Z,93.03
2023-05-20T05:42:01.599Z,95.31
2023-05-20T05:44:28.748Z,95.70
2023-05-20T05:46:55.826Z,96.20
2023-05-20T05:49:22.929Z,93.00
2023-05-20T05:51:51.745Z,93.72
2023-05-20T05:54:20.960Z,91.27
2023-05-20T05:56:48.432Z,91.61
2023-05-20T05:59:16.071Z,90.26
2023-05-20T06:01:44.052Z,90.64
2023-05-20T06:04:11.628Z,90.92
2023-05-20T06:06:40.722Z,89.73
2023-05-20T06:09:07.785Z,88.29
2023-05-20T06:11:35.141Z,87.08
2023-05-20T06:14:02.922Z,87.07
2023-05-20T06:16:30.126Z,87.61
2023-05-20T06:19:00.269Z,88.01
2023-05-20T06:21:32.533Z,87.23
2023-05-20T06:23:59.634Z,86.37
2023-05-20T06:26:26.931Z,86.38
2023-05-20T06:28:54.131Z,85.27
2023-05-20T06:31:22.297Z,85.55
2023-05-20T06:33:49.799Z,85.13
2023-05-20T06:36:17.447Z,84.10
2023-05-20T06:38:44.570Z,85.07
2023-05-20T06:41:14.211Z,84.39
2023-05-20T06:43:41.321Z,84.28
2023-05-20T06:46:26.644Z,84.67
2023-05-20T06:49:03.089Z,85.11
2023-05-20T06:51:30.867Z,83.76
2023-05-20T06:53:58.009Z,84.45
2023-05-20T06:56:25.168Z,82.33
2023-05-20T06:58:52.318Z,82.97
2023-05-20T07:01:19.514Z,82.84
2023-05-20T07:03:47.694Z,82.73
2023-05-20T07:06:14.976Z,81.94
2023-05-20T07:08:42.076Z,82.34
2023-05-20T07:11:09.932Z,80.86
2023-05-20T07:13:37.689Z,81.39
2023-05-20T07:16:05.885Z,83.33
2023-05-20T07:18:32.965Z,82.42
2023-05-20T07:21:00.059Z,83.07
2023-05-20T07:23:34.792Z,83.12
2023-05-20T07:26:01.860Z,82.53
2023-05-20T07:28:29.430Z,85.42
2023-05-20T07:30:57.851Z,85.22
2023-05-20T07:33:27.704Z,84.06
2023-05-20T07:35:54.869Z,85.38
2023-05-20T07:38:23.096Z,84.40
2023-05-20T07:40:58.127Z,85.21
2023-05-20T07:43:25.408Z,87.25
2023-05-20T07:45:52.722Z,85.33
2023-05-20T07:48:19.853Z,84.80
2023-05-20T07:50:46.938Z,84.99
2023-05-20T07:53:14.321Z,84.88
2023-05-20T07:55:41.379Z,84.00
2023-05-20T07:58:08.895Z,85.86
2023-05-20T08:00:36.254Z,84.52
2023-05-20T08:03:08.369Z,85.45
2023-05-20T08:06:03.066Z,83.48
2023-05-20T08:08:30.787Z,81.53
2023-05-20T08:11:04.168Z,82.33
2023-05-20T08:13:32.234Z,80.78
2023-05-20T08:16:01.404Z,82.31
2023-05-20T08:18:29.000Z,79.86
2023-05-20T08:20:56.077Z,79.91
2023-05-20T08:23:23.191Z,80.08
2023-05-20T08:25:50.678Z,80.17
2023-05-20T08:28:19.443Z,80.06
2023-05-20T08:30:47.954Z,82.02
2023-05-20T08:33:15.483Z,80.43
2023-05-20T08:35:42.516Z,78.20
2023-05-20T08:38:09.556Z,79.95
2023-05-20T08:40:36.718Z,78.44
2023-05-20T08:43:04.641Z,78.36
2023-05-20T08:45:33.847Z,77.47
2023-05-20T08:48:06.473Z,77.43
2023-05-20T08:50:33.572Z,77.80
2023-05-20T08:53:01.215Z,80.36
2023-05-20T08:55:46.637Z,79.52
2023-05-20T08:58:15.807Z,78.15
2023-05-20T09:00:42.872Z,77.58
2023-05-20T09:03:10.075Z,78.03
2023-05-20T09:05:37.272Z,75.98
2023-05-20T09:08:06.643Z,78.03
2023-05-20T09:10:34.885Z,78.30
2023-05-20T09:13:05.304Z,75.94
2023-05-20T09:15:33.518Z,77.87
2023-05-20T09:18:04.376Z,76.18
2023-05-20T09:20:37.089Z,76.59
2023-05-20T09:23:08.594Z,76.09
2023-05-20T09:25:36.688Z,75.25
2023-05-20T09:28:10.164Z,73.34
2023-05-20T09:30:37.225Z,75.29
2023-05-20T09:33:05.833Z,75.21
2023-05-20T09:35:37.499Z,73.28
2023-05-20T09:38:07.493Z,72.85
2023-05-20T09:40:37.568Z,73.60
2023-05-20T09:43:11.343Z,71.32
2023-05-20T09:45:38.855Z,71.33
2023-05-20T09:48:08.969Z,69.45
2023-05-20T09:50:36.897Z,68.46
2023-05-20T09:53:04.793Z,66.31
2023-05-20T09:55:32.984Z,67.74
2023-05-20T09:58:03.068Z,68.24
2023-05-20T10:00:30.681Z,69.09
2023-05-20T10:02:58.806Z,69.26
2023-05-20T10:05:37.556Z,70.30
2023-05-20T10:08:35.310Z,68.97
2023-05-20T10:11:23.036Z,69.78
2023-05-20T10:14:18.078Z,70.12
2023-05-20T10:16:55.398Z,69.12
2023-05-20T10:19:32.181Z,69.14
2023-05-20T10:22:07.166Z,68.69
2023-05-20T10:24:44.287Z,67.42
2023-05-20T10:27:16.971Z,68.32
2023-05-20T10:29:50.409Z,67.88
2023-05-20T10:32:31.436Z,68.08
2023-05-20T10:35:09.093Z,67.34
2023-05-20T10:37:44.063Z,66.98
2023-05-20T10:40:16.096Z,67.18
2023-05-20T10:42:43.468Z,64.70
2023-05-20T10:45:12.103Z,64.77
2023-05-20T10:47:53.820Z,64.97
2023-05-20T10:50:35.426Z,65.74
2023-05-20T10:53:05.177Z,65.78
2023-05-20T10:55:40.659Z,66.38
2023-05-20T10:58:07.969Z,65.34
2023-05-20T11:00:39.085Z,63.76
2023-05-20T11:03:07.510Z,64.23
2023-05-20T11:05:35.300Z,64.74
2023-05-20T11:08:20.541Z,62.79
2023-05-20T11:10:57.251Z,62.71
2023-05-20T11:13:26.023Z,64.05
2023-05-20T11:15:54.163Z,62.94
2023-05-20T11:18:21.282Z,63.93
2023-05-20T11:20:48.474Z,63.00
2023-05-20T11:23:15.994Z,64.18
2023-05-20T11:25:43.148Z,62.80
2023-05-20T11:28:14.164Z,62.88
2023-05-20T11:30:43.247Z,65.07
2023-05-20T11:33:13.383Z,65.49
2023-05-20T11:35:51.355Z,65.67
2023-05-20T11:38:19.731Z,64.33
2023-05-20T11:40:51.869Z,65.69
2023-05-20T11:43:20.441Z,66.01
2023-05-20T11:45:52.671Z,65.44
2023-05-20T11:48:20.019Z,65.85
2023-05-20T11:50:48.219Z,65.44
2023-05-20T11:53:17.882Z,66.14
2023-05-20T11:55:53.848Z,69.97
2023-05-20T11:58:25.472Z,69.90
2023-05-20T12:01:01.752Z,68.49
2023-05-20T12:03:32.968Z,68.65
2023-05-20T12:06:03.693Z,69.46
2023-05-20T12:08:31.122Z,69.05
2023-05-20T12:10:58.180Z,69.65
2023-05-20T12:13:25.453Z,69.36
2023-05-20T12:15:52.514Z,70.96
2023-05-20T12:18:19.531Z,70.66
2023-05-20T12:20:46.571Z,70.75
2023-05-20T12:23:13.709Z,71.56
2023-05-20T12:25:40.861Z,68.91
2023-05-20T12:28:08.398Z,69.07
2023-05-20T12:30:35.843Z,68.33
2023-05-20T12:33:03.350Z,69.29
2023-05-20T12:35:41.084Z,70.35
2023-05-20T12:38:08.880Z,69.42
2023-05-20T12:40:36.725Z,68.93
2023-05-20T12:43:05.135Z,67.90
2023-05-20T12:45:32.264Z,70.01
2023-05-20T12:47:59.535Z,70.30
2023-05-20T12:50:27.154Z,69.81
2023-05-20T12:52:54.215Z,67.83
2023-05-20T12:55:21.328Z,67.87
2023-05-20T12:57:48.471Z,69.63
2023-05-20T13:00:16.526Z,67.38
2023-05-20T13:02:43.728Z,68.63
2023-05-20T13:05:11.455Z,69.21
2023-05-20T13:07:38.601Z,68.66
2023-05-20T13:10:07.036Z,66.84
2023-05-20T13:12:35.194Z,67.18
2023-05-20T13:15:03.224Z,65.97
2023-05-20T13:17:30.911Z,65.89
2023-05-20T13:19:58.298Z,63.28
2023-05-20T13:22:25.605Z,62.80
2023-05-20T13:24:52.654Z,62.18
2023-05-20T13:27:19.682Z,62.85
2023-05-20T13:29:46.852Z,60.22
2023-05-20T13:32:13.894Z,61.76
2023-05-20T13:34:41.121Z,62.16
2023-05-20T13:37:08.285Z,62.57
2023-05-20T13:39:36.305Z,64.53
2023-05-20T13:42:04.251Z,65.67
2023-05-20T13:44:32.668Z,66.55
2023-05-20T13:47:00.484Z,64.39
2023-05-20T13:49:27.637Z,64.11
2023-05-20T13:51:54.744Z,64.94
2023-05-20T13:54:22.106Z,64.74
2023-05-20T13:56:49.337Z,64.40
2023-05-20T13:59:16.535Z,65.73
2023-05-20T14:01:45.278Z,64.22
2023-05-20T14:04:12.933Z,63.97
2023-05-20T14:06:40.416Z,64.24
2023-05-20T14:09:09.100Z,64.76
2023-05-20T14:11:36.722Z,66.44
2023-05-20T14:14:03.817Z,66.83
2023-05-20T14:16:31.725Z,67.26
2023-05-20T14:18:58.925Z,66.43
2023-05-20T14:21:26.067Z,66.60
2023-05-20T14:23:53.138Z,68.42
2023-05-20T14:26:20.167Z,67.85
2023-05-20T14:28:47.148Z,67.02
2023-05-20T14:31:14.406Z,66.34
2023-05-20T14:33:41.439Z,66.39
2023-05-20T14:36:08.544Z,66.13
2023-05-20T14:38:35.642Z,67.37
2023-05-20T14:41:02.638Z,69.18
2023-05-20T14:43:31.505Z,66.87
2023-05-20T14:45:58.759Z,65.98
2023-05-20T14:48:25.777Z,67.54
2023-05-20T14:50:52.766Z,68.54
2023-05-20T14:53:19.859Z,70.07
2023-05-20T14:55:46.940Z,69.87
2023-05-20T14:58:14.059Z,69.73
2023-05-20T15:00:41.629Z,70.41
2023-05-20T15:03:08.941Z,71.66
2023-05-20T15:05:36.195Z,70.63
2023-05-20T15:08:03.744Z,71.94
2023-05-20T15:10:30.882Z,71.54
2023-05-20T15:12:57.976Z,70.46
2023-05-20T15:15:25.264Z,69.77
2023-05-20T15:17:52.322Z,71.19
2023-05-20T15:20:19.446Z,69.35
2023-05-20T15:22:48.316Z,62.36
2023-05-20T15:25:15.461Z,56.84
2023-05-20T15:27:42.806Z,54.42
2023-05-20T15:30:10.461Z,56.41
2023-05-20T15:32:37.887Z,58.93
2023-05-20T15:35:05.937Z,60.81
2023-05-20T15:37:33.001Z,63.31
2023-05-20T15:40:00.095Z,66.98
2023-05-20T15:42:27.149Z,67.09
2023-05-20T15:44:54.170Z,65.50
2023-05-20T15:47:21.392Z,60.60
2023-05-20T15:49:48.580Z,53.94
2023-05-20T15:52:15.720Z,54.70
2023-05-20T15:54:42.819Z,54.37
2023-05-20T15:57:10.165Z,56.31
2023-05-20T15:59:37.230Z,59.50
2023-05-20T16:02:04.380Z,61.07
2023-05-20T16:04:32.391Z,62.13
2023-05-20T16:07:01.202Z,64.02
2023-05-20T16:09:28.224Z,65.67
2023-05-20T16:11:56.096Z,65.68
2023-05-20T16:14:23.238Z,65.20
2023-05-20T16:16:50.637Z,64.68
2023-05-20T16:19:17.755Z,63.09
2023-05-20T16:21:45.142Z,63.99
2023-05-20T16:24:12.466Z,62.68
2023-05-20T16:26:39.512Z,66.17
2023-05-20T16:29:06.597Z,66.08
2023-05-20T16:31:33.708Z,67.24
2023-05-20T16:34:00.818Z,66.13
2023-05-20T16:36:27.899Z,67.28
2023-05-20T16:38:54.961Z,68.01
2023-05-20T16:41:22.790Z,69.41
2023-05-20T16:43:49.804Z,68.14
2023-05-20T16:46:17.134Z,63.73
2023-05-20T16:48:44.177Z,54.72
2023-05-20T16:51:11.192Z,47.88
2023-05-20T16:53:38.249Z,47.31
2023-05-20T16:56:08.230Z,48.48
2023-05-20T16:58:35.615Z,41.99
2023-05-20T17:01:02.779Z,41.36
2023-05-20T17:03:29.852Z,42.02
2023-05-20T17:05:57.153Z,44.01
2023-05-20T17:08:24.169Z,48.07
2023-05-20T17:10:53.985Z,50.56
2023-05-20T17:13:21.826Z,49.04
2023-05-20T17:15:48.835Z,48.48
2023-05-20T17:18:15.903Z,47.89
2023-05-20T17:20:43.328Z,48.23
2023-05-20T17:23:10.600Z,47.70
2023-05-20T17:25:37.630Z,48.90
2023-05-20T17:28:04.727Z,47.22
2023-05-20T17:30:32.055Z,46.63
2023-05-20T17:32:59.211Z,47.50
2023-05-20T17:35:26.371Z,49.76
2023-05-20T17:37:54.908Z,49.68
2023-05-20T17:40:22.203Z,48.23
2023-05-20T17:42:49.271Z,46.44
2023-05-20T17:45:16.541Z,46.13
2023-05-20T17:47:43.617Z,46.10
2023-05-20T17:50:11.269Z,45.75
2023-05-20T17:52:38.292Z,49.66
2023-05-20T17:55:06.597Z,53.66
2023-05-20T17:57:34.020Z,57.58
2023-05-20T18:00:02.202Z,61.79
2023-05-20T18:02:32.233Z,64.61
2023-05-20T18:04:59.415Z,66.37
2023-05-20T18:07:26.980Z,68.23
2023-05-20T18:09:54.323Z,69.03
2023-05-20T18:12:21.378Z,70.20
2023-05-20T18:14:48.579Z,72.39
2023-05-20T18:17:15.610Z,74.83
2023-05-20T18:19:42.628Z,75.12
2023-05-20T18:22:09.920Z,75.82
2023-05-20T18:24:36.951Z,76.60
2023-05-20T18:27:04.198Z,77.22
2023-05-20T18:29:31.292Z,77.19
2023-05-20T18:31:58.346Z,77.86
2023-05-20T18:34:25.715Z,78.72
2023-05-20T18:36:52.824Z,80.18
2023-05-20T18:39:20.877Z,80.16
2023-05-20T18:41:48.382Z,80.53
2023-05-20T18:44:16.642Z,80.85
2023-05-20T18:46:44.114Z,81.94
2023-05-20T18:49:11.382Z,82.63
2023-05-20T18:51:41.646Z,82.38
2023-05-20T18:54:08.816Z,83.05
2023-05-20T18:56:36.298Z,83.27
2023-05-20T18:59:03.397Z,83.71
2023-05-20T19:01:31.070Z,84.94
2023-05-20T19:03:58.197Z,85.54
2023-05-20T19:06:25.723Z,87.32
2023-05-20T19:08:52.856Z,86.38
2023-05-20T19:11:20.080Z,87.75
2023-05-20T19:13:47.106Z,89.60
2023-05-20T19:16:14.202Z,91.26
2023-05-20T19:18:41.373Z,90.84
2023-05-20T19:21:08.450Z,91.92
2023-05-20T19:23:35.602Z,91.10
2023-05-20T19:26:02.761Z,92.53
2023-05-20T19:28:29.952Z,92.86
2023-05-20T19:30:57.077Z,92.41
2023-05-20T19:33:24.281Z,93.85
2023-05-20T19:35:51.393Z,94.42
2023-05-20T19:38:18.653Z,93.15
2023-05-20T19:40:46.936Z,94.11
2023-05-20T19:43:14.240Z,95.12
2023-05-20T19:45:41.463Z,95.42
2023-05-20T19:48:09.264Z,95.84
2023-05-20T19:50:36.452Z,96.00
2023-05-20T19:53:06.331Z,96.30
2023-05-20T19:55:35.095Z,96.15
2023-05-20T19:58:02.492Z,95.84
2023-05-20T20:00:29.599Z,97.26
2023-05-20T20:02:57.669Z,96.85
2023-05-20T20:05:25.990Z,96.17
2023-05-20T20:07:53.174Z,96.24
2023-05-20T20:10:20.286Z,96.40
2023-05-20T20:12:47.448Z,97.75
2023-05-20T20:15:14.613Z,98.19
2023-05-20T20:17:46.038Z,98.00
2023-05-20T20:20:14.054Z,97.29
2023-05-20T20:22:41.944Z,97.69
2023-05-20T20:25:09.238Z,97.93
2023-05-20T20:27:38.463Z,98.86
2023-05-20T20:30:06.189Z,98.44
2023-05-20T20:32:35.011Z,98.81
2023-05-20T20:35:03.561Z,99.44
2023-05-20T20:37:30.716Z,99.39
2023-05-20T20:39:57.749Z,99.96
2023-05-20T20:42:24.780Z,100.00
2023-05-20T20:44:52.434Z,100.00
2023-05-20T20:47:19.598Z,100.00
2023-05-20T20:49:46.665Z,100.00
2023-05-20T20:52:13.829Z,100.00
2023-05-20T20:54:43.107Z,100.00
2023-05-20T20:57:11.380Z,100.00
2023-05-20T20:59:38.456Z,100.00
2023-05-20T21:02:06.502Z,100.00
2023-05-20T21:04:33.669Z,100.00
2023-05-20T21:07:02.031Z,100.00
2023-05-20T21:09:29.387Z,100.00
2023-05-20T21:11:57.090Z,100.00
2023-05-20T21:14:25.206Z,100.00
2023-05-20T21:16:52.299Z,100.00
2023-05-20T21:19:19.503Z,100.00
2023-05-20T21:21:46.665Z,100.00
2023-05-20T21:24:13.738Z,100.00
2023-05-20T21:26:40.785Z,100.00
2023-05-20T21:29:09.888Z,100.00
2023-05-20T21:31:36.978Z,100.00
2023-05-20T21:34:04.062Z,100.00
2023-05-20T21:36:32.274Z,100.00
2023-05-20T21:38:59.333Z,100.00
2023-05-20T21:41:27.116Z,100.00
2023-05-20T21:43:54.309Z,100.00
2023-05-20T21:46:21.474Z,100.00
2023-05-20T21:48:48.591Z,100.00
2023-05-20T21:51:15.779Z,100.00
2023-05-20T21:53:43.019Z,100.00
2023-05-20T21:56:10.093Z,100.00
2023-05-20T21:58:40.985Z,100.00
2023-05-20T22:01:09.692Z,100.00
2023-05-20T22:03:38.155Z,100.00
2023-05-20T22:06:06.440Z,100.00
2023-05-20T22:08:36.402Z,100.00
2023-05-20T22:11:07.342Z,100.00
2023-05-20T22:13:35.524Z,100.00
2023-05-20T22:16:04.902Z,100.00
2023-05-20T22:18:32.496Z,100.00
2023-05-20T22:21:00.976Z,100.00
2023-05-20T22:23:28.474Z,100.00
2023-05-20T22:25:56.313Z,100.00
2023-05-20T22:28:23.763Z,100.00
2023-05-20T22:30:51.497Z,100.00
2023-05-20T22:33:18.682Z,100.00
2023-05-20T22:35:45.930Z,100.00
2023-05-20T22:38:12.981Z,100.00
2023-05-20T22:40:40.011Z,100.00
2023-05-20T22:43:07.182Z,100.00
2023-05-20T22:45:34.357Z,100.00
2023-05-20T22:48:02.024Z,100.00
2023-05-20T22:50:29.165Z,100.00
2023-05-20T22:52:56.323Z,100.00
2023-05-20T22:55:23.895Z,100.00
2023-05-20T22:57:51.357Z,100.00
2023-05-20T23:00:18.762Z,100.00
2023-05-20T23:02:49.493Z,100.00
2023-05-20T23:05:16.706Z,100.00
2023-05-20T23:07:44.740Z,100.00
2023-05-20T23:10:11.893Z,100.00
2023-05-20T23:12:39.116Z,100.00
2023-05-20T23:15:06.835Z,100.00
2023-05-20T23:17:33.964Z,100.00
2023-05-20T23:20:01.093Z,100.00
2023-05-20T23:22:28.221Z,100.00
2023-05-20T23:24:55.295Z,100.00
2023-05-20T23:27:22.377Z,100.00
2023-05-20T23:29:49.448Z,100.00
2023-05-20T23:32:16.469Z,100.00
2023-05-20T23:34:43.545Z,100.00
2023-05-20T23:37:10.581Z,100.00
2023-05-20T23:39:37.817Z,100.00
2023-05-20T23:42:05.306Z,100.00
2023-05-20T23:44:32.331Z,100.00
2023-05-20T23:46:59.417Z,100.00
2023-05-20T23:49:27.193Z,100.00
2023-05-20T23:51:54.324Z,100.00
2023-05-20T23:54:22.724Z,100.00
2023-05-20T23:56:49.837Z,100.00
2023-05-20T23:59:17.105Z,100.00
